Time;durP1;ratioP1;P1;durP2;ratioP2;P2;SDS_P1;SDS_P2;PMS_P1;PMS_P2;Temp;Humidity;BMP_temperature;BMP_pressure;BME280_temperature;BME280_humidity;BME280_pressure;Samples;Min_cycle;Max_cycle;Signal;HPM_P1;HPM_P2
2021/08/30 00:01:12;;;;;;;0.90;0.82;;;;;;;16.61;100.00;97061.75;5052330;28;20029;-76
2021/08/30 00:03:38;;;;;;;2.60;1.23;;;;;;;16.60;100.00;97051.13;5055220;28;20103;-77
2021/08/30 00:06:04;;;;;;;0.80;0.80;;;;;;;16.75;100.00;97063.16;5052437;28;20113;-77
2021/08/30 00:08:29;;;;;;;3.58;1.10;;;;;;;16.67;100.00;97063.06;5054190;28;20024;-76
2021/08/30 00:10:55;;;;;;;0.70;0.52;;;;;;;16.80;100.00;97069.84;5073523;28;20032;-76
2021/08/30 00:13:21;;;;;;;1.05;0.88;;;;;;;16.79;100.00;97080.81;5051898;28;20108;-76
2021/08/30 00:15:46;;;;;;;0.47;0.43;;;;;;;16.65;100.00;97074.00;5055402;28;20032;-75
2021/08/30 00:18:12;;;;;;;1.23;0.70;;;;;;;16.63;100.00;97057.09;5055560;28;20029;-76
2021/08/30 00:20:37;;;;;;;0.80;0.65;;;;;;;16.57;100.00;97054.97;5073274;28;20033;-76
2021/08/30 00:23:03;;;;;;;2.15;1.23;;;;;;;16.70;100.00;97090.59;5052407;28;20049;-76
2021/08/30 00:25:28;;;;;;;0.32;0.32;;;;;;;16.68;100.00;97081.81;5052037;28;20043;-76
2021/08/30 00:27:54;;;;;;;0.65;0.52;;;;;;;16.63;100.00;97077.84;5048026;28;20028;-76
2021/08/30 00:30:20;;;;;;;0.63;0.63;;;;;;;16.67;100.00;97090.88;5051070;28;20066;-76
2021/08/30 00:32:45;;;;;;;1.17;0.82;;;;;;;16.65;100.00;97090.19;5051917;28;20028;-76
2021/08/30 00:35:11;;;;;;;0.38;0.38;;;;;;;16.64;100.00;97082.25;5051021;28;20025;-76
2021/08/30 00:37:36;;;;;;;0.45;0.38;;;;;;;16.62;100.00;97079.69;5072803;28;20017;-75
2021/08/30 00:40:04;;;;;;;1.98;0.55;;;;;;;16.69;100.00;97094.31;5051743;28;20025;-76
2021/08/30 00:42:29;;;;;;;0.15;0.15;;;;;;;16.64;100.00;97084.94;5054834;28;20012;-76
2021/08/30 00:44:55;;;;;;;1.45;0.68;;;;;;;16.62;100.00;97081.50;5055091;28;20024;-77
2021/08/30 00:47:21;;;;;;;1.27;1.08;;;;;;;16.57;100.00;97087.38;5054912;28;20032;-76
2021/08/30 00:49:47;;;;;;;0.55;0.40;;;;;;;16.52;100.00;97077.97;5037929;28;20621;-76
2021/08/30 00:52:12;;;;;;;0.40;0.38;;;;;;;16.55;100.00;97088.50;5054837;28;20025;-76
2021/08/30 00:54:38;;;;;;;0.68;0.68;;;;;;;16.59;100.00;97093.47;5072253;28;20032;-76
2021/08/30 00:57:05;;;;;;;1.05;0.60;;;;;;;16.55;100.00;97072.31;5054607;28;20036;-76
2021/08/30 00:59:30;;;;;;;0.50;0.50;;;;;;;16.53;100.00;97077.81;5037616;28;20103;-75
2021/08/30 01:01:56;;;;;;;2.25;0.93;;;;;;;16.66;100.00;97102.72;5038095;28;20112;-76
2021/08/30 01:04:22;;;;;;;1.70;0.85;;;;;;;16.54;100.00;97087.66;5036745;28;20024;-76
2021/08/30 01:06:58;;;;;;;0.47;0.32;;;;;;;16.71;100.00;97100.41;5054477;28;20043;-76
2021/08/30 01:09:39;;;;;;;0.70;0.55;;;;;;;16.71;100.00;97103.13;5053334;28;20036;-76
2021/08/30 01:12:09;;;;;;;0.73;0.32;;;;;;;16.67;100.00;97109.78;5072196;28;20056;-76
2021/08/30 01:14:51;;;;;;;1.17;0.88;;;;;;;16.64;100.00;97107.38;5037589;28;20445;-76
2021/08/30 01:17:17;;;;;;;0.75;0.43;;;;;;;16.57;100.00;97100.88;5051679;28;20112;-76
2021/08/30 01:19:47;;;;;;;2.40;1.65;;;;;;;16.66;100.00;97105.41;5034311;28;20068;-76
2021/08/30 01:22:14;;;;;;;1.67;0.60;;;;;;;16.71;100.00;97103.13;5041966;28;20049;-76
2021/08/30 01:24:40;;;;;;;1.38;0.65;;;;;;;16.69;100.00;97083.50;5065060;28;20100;-76
2021/08/30 01:27:05;;;;;;;2.33;1.08;;;;;;;16.72;100.00;97088.63;5034103;28;20123;-77
2021/08/30 01:29:53;;;;;;;0.50;0.50;;;;;;;16.66;100.00;97083.81;5050506;28;20085;-76
2021/08/30 01:32:36;;;;;;;0.55;0.50;;;;;;;16.74;100.00;97112.78;5039968;28;20025;-76
2021/08/30 01:35:19;;;;;;;0.80;0.80;;;;;;;16.76;100.00;97116.22;5042904;28;20407;-76
2021/08/30 01:37:48;;;;;;;0.70;0.70;;;;;;;16.82;100.00;97122.88;5065819;28;20174;-76
2021/08/30 01:40:15;;;;;;;1.70;0.40;;;;;;;16.84;100.00;97113.63;5054042;28;20024;-76
2021/08/30 01:42:45;;;;;;;0.32;0.28;;;;;;;16.87;100.00;97120.59;5053741;28;20105;-76
2021/08/30 01:45:13;;;;;;;0.85;0.82;;;;;;;16.86;100.00;97119.72;5042704;28;20404;-76
2021/08/30 01:47:39;;;;;;;1.23;0.30;;;;;;;16.79;100.00;97113.22;5053783;28;20052;-77
2021/08/30 01:50:06;;;;;;;1.15;0.68;;;;;;;16.80;100.00;97131.09;5053598;28;20537;-76
2021/08/30 01:52:34;;;;;;;3.40;0.95;;;;;;;16.82;100.00;97133.69;5053727;28;20504;-76
2021/08/30 01:55:08;;;;;;;0.93;0.55;;;;;;;16.67;100.00;97136.78;5037010;28;20503;-76
2021/08/30 01:57:45;;;;;;;2.92;0.95;;;;;;;16.63;100.00;97127.31;5060269;28;20430;-76
2021/08/30 02:02:56;;;;;;;13.45;0.70;;;;;;;16.69;100.00;97148.34;5056182;28;20146;-76
2021/08/30 02:05:21;;;;;;;0.30;0.30;;;;;;;16.69;100.00;97150.19;5053521;28;20052;-76
2021/08/30 02:07:47;;;;;;;0.20;0.20;;;;;;;16.67;100.00;97133.28;5053304;28;20028;-76
2021/08/30 02:10:12;;;;;;;7.75;1.75;;;;;;;16.67;100.00;97130.56;5033568;28;20044;-76
2021/08/30 02:12:38;;;;;;;0.13;0.13;;;;;;;16.76;100.00;97138.63;5051889;28;20082;-77
2021/08/30 02:15:04;;;;;;;2.53;1.02;;;;;;;16.74;100.00;97147.88;5049947;28;20029;-76
2021/08/30 02:17:32;;;;;;;0.20;0.20;;;;;;;16.68;100.00;97138.50;5068683;28;20112;-76
2021/08/30 02:20:05;;;;;;;0.98;0.73;;;;;;;16.71;100.00;97134.66;5051524;28;20486;-76
2021/08/30 02:22:35;;;;;;;1.02;0.95;;;;;;;16.77;100.00;97148.47;5036771;28;20045;-76
2021/08/30 02:25:05;;;;;;;0.25;0.25;;;;;;;16.69;100.00;97148.34;5053324;28;20111;-76
2021/08/30 02:27:49;;;;;;;1.27;0.98;;;;;;;16.56;100.00;97142.34;5050764;28;20399;-76
2021/08/30 02:30:18;;;;;;;0.30;0.22;;;;;;;16.49;100.00;97149.28;5036549;28;20086;-76
2021/08/30 02:32:45;;;;;;;1.23;0.50;;;;;;;16.44;100.00;97138.06;5052979;28;20020;-76
2021/08/30 02:35:15;;;;;;;0.90;0.68;;;;;;;16.51;100.00;97152.72;5052990;28;20529;-76
2021/08/30 02:37:41;;;;;;;0.65;0.55;;;;;;;16.53;100.00;97153.41;5055373;28;20075;-77
2021/08/30 02:40:08;;;;;;;0.55;0.47;;;;;;;16.55;100.00;97159.53;5059947;28;20474;-76
2021/08/30 02:42:34;;;;;;;0.75;0.60;;;;;;;16.57;100.00;97162.13;5040399;28;20021;-76
2021/08/30 02:45:01;;;;;;;1.13;0.80;;;;;;;16.59;100.00;97169.06;5057574;28;20087;-76
2021/08/30 02:47:27;;;;;;;0.60;0.60;;;;;;;16.51;100.00;97171.59;5067105;28;20044;-76
2021/08/30 02:49:54;;;;;;;0.40;0.40;;;;;;;16.46;100.00;97167.59;5059528;28;20085;-76
2021/08/30 02:52:21;;;;;;;0.20;0.20;;;;;;;16.41;100.00;97170.72;5056297;28;20029;-77
2021/08/30 02:54:47;;;;;;;1.27;0.68;;;;;;;16.42;100.00;97164.34;5058242;28;20020;-76
2021/08/30 02:57:14;;;;;;;0.50;0.50;;;;;;;16.47;100.00;97159.38;5059510;28;20380;-76
2021/08/30 02:59:40;;;;;;;0.80;0.80;;;;;;;16.55;100.00;97151.44;5042784;28;20012;-76
2021/08/30 03:02:06;;;;;;;0.60;0.35;;;;;;;16.62;100.00;97167.94;5056263;28;20480;-76
2021/08/30 03:04:32;;;;;;;1.55;0.63;;;;;;;16.55;100.00;97156.00;5052652;28;20031;-76
2021/08/30 03:06:59;;;;;;;2.75;1.10;;;;;;;16.61;100.00;97164.38;5059077;28;20403;-76
2021/08/30 03:09:24;;;;;;;0.60;0.60;;;;;;;16.64;100.00;97172.19;5059365;28;20082;-76
2021/08/30 03:11:52;;;;;;;1.95;0.93;;;;;;;16.61;100.00;97169.78;5059248;28;20454;-77
2021/08/30 03:14:20;;;;;;;1.00;0.45;;;;;;;16.49;100.00;97149.28;5042754;28;20024;-76
2021/08/30 03:16:47;;;;;;;0.73;0.73;;;;;;;16.52;100.00;97151.69;5059563;28;20038;-76
2021/08/30 03:19:13;;;;;;;0.88;0.73;;;;;;;16.48;100.00;97155.69;5058141;28;20025;-76
2021/08/30 03:21:40;;;;;;;1.17;0.43;;;;;;;16.54;100.00;97165.97;5056449;28;20044;-75
2021/08/30 03:24:06;;;;;;;0.57;0.57;;;;;;;16.40;100.00;97168.16;5057138;28;20021;-76
2021/08/30 03:26:32;;;;;;;1.25;0.68;;;;;;;16.45;100.00;97171.31;5045531;28;20111;-76
2021/08/30 03:28:58;;;;;;;1.00;0.63;;;;;;;16.39;100.00;97175.44;5069834;28;20052;-76
2021/08/30 03:31:26;;;;;;;0.32;0.32;;;;;;;16.40;100.00;97163.63;5059312;28;20032;-76
2021/08/30 03:33:55;;;;;;;1.25;0.80;;;;;;;16.34;100.00;97158.78;5057650;28;20079;-76
2021/08/30 03:36:20;;;;;;;1.35;1.05;;;;;;;16.36;100.00;97164.91;5039075;28;20024;-76
2021/08/30 03:38:46;;;;;;;1.92;0.70;;;;;;;16.47;100.00;97175.56;5039667;28;20029;-76
2021/08/30 03:41:13;;;;;;;0.43;0.43;;;;;;;16.37;100.00;97172.00;5059152;28;20031;-76
2021/08/30 03:43:40;;;;;;;0.80;0.63;;;;;;;16.36;100.00;97178.41;5042557;28;20028;-76
2021/08/30 03:46:06;;;;;;;0.20;0.20;;;;;;;16.35;100.00;97181.22;5058880;28;20471;-76
2021/08/30 03:48:31;;;;;;;0.73;0.73;;;;;;;16.31;100.00;97186.06;5036606;28;20039;-76
2021/08/30 03:50:58;;;;;;;0.63;0.63;;;;;;;16.26;100.00;97166.75;5072142;28;20029;-76
2021/08/30 03:53:23;;;;;;;0.20;0.20;;;;;;;16.46;100.00;97181.09;5039146;28;20118;-76
2021/08/30 03:55:50;;;;;;;0.60;0.60;;;;;;;16.51;100.00;97193.22;5038995;28;20460;-76
2021/08/30 03:58:17;;;;;;;0.68;0.60;;;;;;;16.52;100.00;97184.09;5055817;28;20066;-76
2021/08/30 04:00:43;;;;;;;12.50;1.40;;;;;;;16.51;100.00;97184.25;5039058;28;20028;-76
2021/08/30 04:03:11;;;;;;;1.60;0.82;;;;;;;16.47;100.00;97189.06;5039181;28;20408;-76
2021/08/30 04:05:38;;;;;;;0.43;0.43;;;;;;;16.48;100.00;97198.03;5039211;28;20476;-76
2021/08/30 04:08:04;;;;;;;0.57;0.55;;;;;;;16.49;100.00;97186.25;5054611;28;20100;-76
2021/08/30 04:10:30;;;;;;;1.45;0.90;;;;;;;16.51;100.00;97181.56;5039087;28;20129;-76
2021/08/30 04:12:56;;;;;;;0.63;0.30;;;;;;;16.54;100.00;97182.16;5053475;28;20047;-77
2021/08/30 04:15:22;;;;;;;1.85;0.70;;;;;;;16.59;100.00;97179.03;5055429;28;20028;-77
2021/08/30 04:17:48;;;;;;;1.13;0.68;;;;;;;16.62;100.00;97201.19;5038961;28;20028;-77
2021/08/30 04:20:14;;;;;;;0.60;0.60;;;;;;;16.64;100.00;97192.97;5073542;28;20039;-76
2021/08/30 04:22:39;;;;;;;0.80;0.60;;;;;;;16.50;100.00;97180.69;5038920;28;20128;-76
2021/08/30 04:25:05;;;;;;;0.90;0.70;;;;;;;16.56;100.00;97188.25;5055350;28;20040;-76
2021/08/30 04:27:31;;;;;;;0.65;0.65;;;;;;;16.68;100.00;97200.63;5052606;28;20460;-81
2021/08/30 04:29:56;;;;;;;0.25;0.25;;;;;;;16.67;100.00;97190.00;5030643;28;20025;-80
2021/08/30 04:32:22;;;;;;;2.58;0.90;;;;;;;16.69;100.00;97186.16;5039451;28;20028;-77
2021/08/30 04:34:47;;;;;;;0.80;0.80;;;;;;;16.57;100.00;97178.31;5073416;28;20024;-82
2021/08/30 04:37:13;;;;;;;0.22;0.22;;;;;;;16.60;100.00;97184.28;5055285;28;20035;-77
2021/08/30 04:39:38;;;;;;;0.60;0.60;;;;;;;16.87;100.00;97201.63;5073505;28;20024;-78
2021/08/30 04:42:05;;;;;;;1.45;0.50;;;;;;;16.82;100.00;97190.41;5053372;28;20017;-77
2021/08/30 04:44:32;;;;;;;0.43;0.43;;;;;;;16.89;100.00;97210.47;5038242;28;20404;-77
2021/08/30 04:46:59;;;;;;;0.22;0.22;;;;;;;16.97;100.00;97205.19;5032501;28;20028;-78
2021/08/30 04:49:24;;;;;;;0.75;0.60;;;;;;;16.74;100.00;97207.31;5032232;28;20458;-77
2021/08/30 04:51:50;;;;;;;1.15;0.55;;;;;;;16.51;100.00;97220.22;5071147;28;20036;-77
2021/08/30 04:54:19;;;;;;;0.43;0.40;;;;;;;16.22;100.00;97203.94;5072505;28;20027;-77
2021/08/30 04:56:45;;;;;;;4.05;1.05;;;;;;;16.29;100.00;97206.94;5047758;28;20025;-77
2021/08/30 04:59:10;;;;;;;0.77;0.77;;;;;;;16.35;100.00;97216.31;5055130;28;20089;-78
2021/08/30 05:01:36;;;;;;;1.67;0.60;;;;;;;16.41;100.00;97208.53;5037902;28;20036;-77
2021/08/30 05:04:01;;;;;;;3.22;1.40;;;;;;;16.56;100.00;97215.25;5038339;28;20080;-76
2021/08/30 05:06:27;;;;;;;1.85;1.15;;;;;;;16.73;100.00;97219.13;5055909;28;20056;-81
2021/08/30 05:08:52;;;;;;;0.90;0.60;;;;;;;16.82;100.00;97212.88;5057147;28;20083;-79
2021/08/30 05:11:18;;;;;;;1.15;0.65;;;;;;;16.84;100.00;97210.03;5074266;28;20408;-75
2021/08/30 05:13:43;;;;;;;1.92;0.40;;;;;;;17.02;100.00;97225.38;5072151;28;20024;-75
2021/08/30 05:16:09;;;;;;;1.92;1.15;;;;;;;16.90;100.00;97198.66;5054449;28;20039;-75
2021/08/30 05:18:34;;;;;;;1.38;0.63;;;;;;;16.96;100.00;97214.28;5072048;28;20111;-76
2021/08/30 05:21:00;;;;;;;0.85;0.70;;;;;;;17.23;100.00;97222.50;5066413;28;20039;-76
2021/08/30 05:23:26;;;;;;;1.92;1.60;;;;;;;17.22;100.00;97210.88;5048678;28;20052;-76
2021/08/30 05:25:51;;;;;;;0.95;0.90;;;;;;;17.41;100.00;97220.78;5035148;28;20047;-76
2021/08/30 05:28:17;;;;;;;1.20;0.95;;;;;;;17.39;100.00;97222.78;5051633;28;20099;-75
2021/08/30 05:30:42;;;;;;;2.40;0.52;;;;;;;17.56;100.00;97227.50;5033829;28;20036;-76
2021/08/30 05:33:08;;;;;;;0.90;0.88;;;;;;;17.59;100.00;97232.63;5051518;28;20028;-76
2021/08/30 05:35:33;;;;;;;0.73;0.73;;;;;;;17.44;100.00;97215.13;5068984;28;20024;-76
2021/08/30 05:37:59;;;;;;;1.65;1.00;;;;;;;17.50;100.00;97230.75;5069152;28;20032;-78
2021/08/30 05:40:24;;;;;;;0.90;0.80;;;;;;;17.58;100.00;97225.50;5031224;28;20032;-78
2021/08/30 05:42:50;;;;;;;0.82;0.82;;;;;;;17.64;100.00;97224.91;5034587;28;20416;-78
2021/08/30 05:45:15;;;;;;;1.00;0.63;;;;;;;17.77;100.00;97222.75;5051344;28;20047;-77
2021/08/30 05:47:42;;;;;;;0.63;0.43;;;;;;;17.70;100.00;97227.03;5049549;28;20515;-78
2021/08/30 05:50:08;;;;;;;0.28;0.28;;;;;;;17.67;100.00;97227.31;5034770;28;20035;-78
2021/08/30 05:52:34;;;;;;;15.18;0.80;;;;;;;17.90;100.00;97237.78;5034410;28;20036;-77
2021/08/30 05:54:59;;;;;;;0.63;0.52;;;;;;;17.69;100.00;97221.75;5069493;28;20500;-77
2021/08/30 05:57:25;;;;;;;0.47;0.47;;;;;;;17.88;100.00;97241.50;5051043;28;20028;-78
2021/08/30 05:59:50;;;;;;;0.50;0.50;;;;;;;18.01;100.00;97241.16;5033685;28;20040;-78
2021/08/30 06:02:16;;;;;;;18.58;2.08;;;;;;;17.83;100.00;97235.69;5051123;28;20446;-77
2021/08/30 06:04:42;;;;;;;0.32;0.32;;;;;;;17.79;100.00;97231.56;5068612;28;20472;-78
2021/08/30 06:07:07;;;;;;;0.98;0.68;;;;;;;18.02;100.00;97248.28;5034334;28;20412;-78
2021/08/30 06:09:33;;;;;;;2.67;1.27;;;;;;;18.21;100.00;97247.34;5050723;28;20029;-78
2021/08/30 06:11:58;;;;;;;5.88;0.90;;;;;;;18.20;100.00;97234.81;5068259;28;20028;-76
2021/08/30 06:14:24;;;;;;;0.40;0.40;;;;;;;18.15;100.00;97251.50;5068695;28;20029;-76
2021/08/30 06:16:49;;;;;;;1.73;0.85;;;;;;;18.31;100.00;97248.16;5032944;28;20039;-76
2021/08/30 06:19:15;;;;;;;0.40;0.40;;;;;;;18.11;100.00;97246.53;5050850;28;20024;-76
2021/08/30 06:21:40;;;;;;;1.42;1.05;;;;;;;18.09;100.00;97245.84;5050652;28;20416;-77
2021/08/30 06:24:06;;;;;;;0.40;0.40;;;;;;;18.20;100.00;97246.50;5068512;28;20036;-77
2021/08/30 06:26:33;;;;;;;1.17;0.60;;;;;;;18.36;100.00;97246.69;5050900;28;20027;-76
2021/08/30 06:28:59;;;;;;;0.15;0.15;;;;;;;18.55;99.70;97253.88;5068276;28;20453;-77
2021/08/30 06:31:25;;;;;;;0.50;0.25;;;;;;;18.49;100.00;97232.81;5050615;28;20029;-76
2021/08/30 06:33:50;;;;;;;2.00;1.00;;;;;;;18.84;98.18;97249.16;5050373;28;20085;-77
2021/08/30 06:36:16;;;;;;;1.15;0.57;;;;;;;19.08;97.18;97244.97;5050541;28;20036;-76
2021/08/30 06:38:41;;;;;;;0.43;0.43;;;;;;;19.14;96.16;97241.63;5050535;28;20024;-76
2021/08/30 06:41:07;;;;;;;0.55;0.55;;;;;;;19.18;95.68;97234.91;5068458;28;20032;-79
2021/08/30 06:43:32;;;;;;;2.08;1.52;;;;;;;19.22;93.59;97233.59;5068535;28;20031;-76
2021/08/30 06:45:58;;;;;;;0.50;0.50;;;;;;;19.00;94.08;97234.91;5067878;28;20032;-76
2021/08/30 06:48:23;;;;;;;0.55;0.55;;;;;;;19.06;95.78;97250.56;5046892;28;20037;-76
2021/08/30 06:50:49;;;;;;;0.70;0.57;;;;;;;19.42;92.35;97251.41;5047839;28;20037;-78
2021/08/30 06:53:15;;;;;;;1.65;0.75;;;;;;;19.36;89.72;97260.16;5068638;28;20063;-77
2021/08/30 06:55:40;;;;;;;0.60;0.52;;;;;;;19.40;89.91;97256.16;5030554;28;20031;-78
2021/08/30 06:58:06;;;;;;;4.35;0.95;;;;;;;19.13;89.32;97256.22;5049597;28;20373;-78
2021/08/30 07:00:32;;;;;;;3.13;0.68;;;;;;;19.43;89.75;97255.84;5050677;28;20416;-78
2021/08/30 07:02:57;;;;;;;1.70;1.05;;;;;;;19.60;87.71;97259.50;5068390;28;20036;-78
2021/08/30 07:05:23;;;;;;;1.08;0.73;;;;;;;19.57;87.51;97251.69;5068565;28;20509;-77
2021/08/30 07:07:48;;;;;;;1.13;0.95;;;;;;;19.56;87.71;97244.59;5031047;28;20852;-78
2021/08/30 07:10:14;;;;;;;0.40;0.40;;;;;;;19.30;87.84;97248.06;5033630;28;20032;-78
2021/08/30 07:12:40;;;;;;;6.82;1.45;;;;;;;19.33;89.65;97260.47;5033449;28;20464;-77
2021/08/30 07:15:06;;;;;;;1.05;0.65;;;;;;;22.08;74.59;97244.16;5067734;28;20150;-77
2021/08/30 07:17:31;;;;;;;0.80;0.80;;;;;;;24.89;63.16;97273.34;5046796;28;20036;-78
2021/08/30 07:19:57;;;;;;;1.08;0.85;;;;;;;26.99;54.94;97280.75;5028980;28;20037;-79
2021/08/30 07:22:23;;;;;;;1.67;0.70;;;;;;;28.37;48.70;97282.75;5049925;28;20048;-79
2021/08/30 07:24:48;;;;;;;1.00;0.52;;;;;;;29.58;45.57;97273.72;5071756;28;20024;-78
2021/08/30 07:27:14;;;;;;;1.40;1.05;;;;;;;30.22;41.43;97280.94;5053556;28;20408;-79
2021/08/30 07:29:39;;;;;;;1.05;0.55;;;;;;;31.09;40.26;97274.38;5050361;28;20104;-79
2021/08/30 07:32:05;;;;;;;18.52;1.30;;;;;;;30.41;40.65;97288.25;5051847;28;20147;-79
2021/08/30 07:34:31;;;;;;;0.20;0.20;;;;;;;30.59;39.37;97279.13;5047106;28;20468;-79
2021/08/30 07:36:56;;;;;;;2.20;0.22;;;;;;;31.12;39.00;97274.75;5066080;28;20103;-79
2021/08/30 07:39:22;;;;;;;1.48;0.20;;;;;;;31.88;38.30;97273.31;5053881;28;20054;-79
2021/08/30 07:41:49;;;;;;;0.50;0.50;;;;;;;31.03;38.52;97283.59;5050391;28;20146;-79
2021/08/30 07:44:15;;;;;;;10.98;1.40;;;;;;;32.52;35.93;97265.03;5036190;28;20568;-79
2021/08/30 07:46:40;;;;;;;4.72;2.97;;;;;;;33.31;34.61;97273.81;5053557;28;20107;-79
2021/08/30 07:49:06;;;;;;;3.80;2.92;;;;;;;33.10;33.81;97262.25;5053331;28;20135;-79
2021/08/30 07:51:33;;;;;;;7.25;2.75;;;;;;;33.87;33.00;97273.03;5053548;28;20033;-80
2021/08/30 07:54:00;;;;;;;3.47;3.17;;;;;;;32.39;34.23;97270.81;5033745;28;20463;-79
2021/08/30 07:56:25;;;;;;;5.80;3.55;;;;;;;30.27;38.40;97274.75;5052901;28;20031;-79
2021/08/30 07:58:51;;;;;;;7.43;3.28;;;;;;;32.06;36.87;97287.97;5050131;28;20407;-79
2021/08/30 08:01:16;;;;;;;3.78;3.20;;;;;;;34.22;32.69;97270.91;5070009;28;20032;-80
2021/08/30 08:03:42;;;;;;;5.30;2.90;;;;;;;34.96;30.71;97271.53;5071846;28;20103;-79
2021/08/30 08:06:07;;;;;;;3.80;2.80;;;;;;;33.09;34.00;97276.38;5053206;28;20041;-80
2021/08/30 08:08:33;;;;;;;4.50;3.50;;;;;;;32.72;34.86;97287.72;5053359;28;20024;-79
2021/08/30 08:10:58;;;;;;;6.07;3.33;;;;;;;33.22;34.41;97293.59;5066071;28;20779;-80
2021/08/30 08:13:24;;;;;;;3.60;2.85;;;;;;;33.06;33.99;97271.28;5053141;28;20102;-80
2021/08/30 08:15:50;;;;;;;8.95;3.35;;;;;;;33.13;34.61;97280.38;5033121;28;20037;-79
2021/08/30 08:18:16;;;;;;;4.30;3.40;;;;;;;35.18;31.23;97269.66;5070080;28;20024;-79
2021/08/30 08:20:42;;;;;;;5.30;3.42;;;;;;;31.78;34.61;97278.59;5036519;28;20047;-80
2021/08/30 08:23:07;;;;;;;4.30;3.22;;;;;;;30.12;38.41;97286.09;5070593;28;20061;-79
2021/08/30 08:25:34;;;;;;;3.70;3.30;;;;;;;31.78;35.34;97284.13;5070705;28;20499;-79
2021/08/30 08:28:04;;;;;;;3.67;3.05;;;;;;;33.09;33.37;97268.06;5020433;28;20040;-78
2021/08/30 08:30:31;;;;;;;8.95;3.88;;;;;;;32.98;34.72;97285.53;5069387;28;20036;-79
2021/08/30 08:32:57;;;;;;;4.53;3.47;;;;;;;31.91;35.96;97268.16;5032918;28;20044;-79
2021/08/30 08:35:22;;;;;;;5.78;3.38;;;;;;;33.00;34.60;97277.81;5051133;28;20037;-78
2021/08/30 08:37:48;;;;;;;7.40;3.35;;;;;;;32.36;35.99;97265.75;5070590;28;20458;-78
2021/08/30 08:40:15;;;;;;;7.93;3.63;;;;;;;32.13;35.41;97271.25;5052871;28;20047;-78
2021/08/30 08:42:42;;;;;;;7.32;4.07;;;;;;;31.50;37.17;97284.75;5052334;28;20031;-77
2021/08/30 08:45:10;;;;;;;7.35;3.80;;;;;;;31.60;36.29;97272.03;5052333;28;20130;-79
2021/08/30 08:47:37;;;;;;;4.43;3.80;;;;;;;31.14;36.54;97255.16;5027491;28;20032;-78
2021/08/30 08:50:05;;;;;;;4.18;3.78;;;;;;;29.92;38.58;97277.16;5049399;28;20480;-79
2021/08/30 08:52:30;;;;;;;5.53;3.78;;;;;;;29.74;39.14;97264.09;5058727;28;20035;-79
2021/08/30 08:54:56;;;;;;;7.00;3.78;;;;;;;30.54;38.07;97266.03;5049362;28;20033;-78
2021/08/30 08:57:22;;;;;;;4.57;3.45;;;;;;;29.61;39.78;97268.84;5031505;28;20033;-78
2021/08/30 09:00:14;;;;;;;6.85;4.40;;;;;;;28.77;41.77;97286.31;5052439;28;20085;-79
2021/08/30 09:02:40;;;;;;;;;;;;;;;28.56;41.28;97270.03;5034226;28;20579;-78
2021/08/30 09:05:07;;;;;;;5.18;3.75;;;;;;;30.17;38.44;97252.31;5052431;28;20019;-78
2021/08/30 09:07:42;;;;;;;7.82;3.38;;;;;;;30.77;37.71;97256.22;5060355;28;20438;-79
2021/08/30 09:10:13;;;;;;;7.07;3.78;;;;;;;30.52;37.78;97245.22;5052650;28;20672;-79
2021/08/30 09:12:41;;;;;;;5.35;3.92;;;;;;;31.31;35.81;97255.38;5052219;28;20158;-78
2021/08/30 09:15:23;;;;;;;3.67;3.35;;;;;;;32.31;33.14;97232.38;5048947;28;20565;-79
2021/08/30 09:17:55;;;;;;;10.40;3.53;;;;;;;30.61;36.65;97244.69;5052176;28;20539;-79
2021/08/30 09:20:24;;;;;;;;;;;;;;;33.01;32.75;97235.97;5052169;28;20059;-79
2021/08/30 09:22:51;;;;;;;9.50;3.35;;;;;;;34.01;30.98;97218.84;5052164;28;20394;-79
2021/08/30 09:25:17;;;;;;;7.60;3.53;;;;;;;35.11;29.73;97225.34;5053619;28;20491;-79
2021/08/30 09:27:47;;;;;;;5.57;3.92;;;;;;;35.29;29.03;97221.38;5046254;28;20464;-79
2021/08/30 09:30:14;;;;;;;8.85;3.90;;;;;;;34.14;31.55;97221.34;5037781;28;20443;-79
2021/08/30 09:32:41;;;;;;;5.38;3.38;;;;;;;34.89;28.67;97218.06;5054026;28;20021;-79
2021/08/30 09:35:08;;;;;;;5.50;3.47;;;;;;;35.89;28.18;97204.56;5039457;28;20400;-79
2021/08/30 09:37:37;;;;;;;3.58;3.20;;;;;;;36.25;27.20;97197.38;5052691;28;20039;-79
2021/08/30 09:40:06;;;;;;;4.68;3.70;;;;;;;35.75;28.05;97193.00;5054335;28;20491;-78
2021/08/30 09:42:32;;;;;;;5.20;3.50;;;;;;;35.35;29.40;97210.06;5052270;28;20029;-79
2021/08/30 09:45:08;;;;;;;4.75;3.28;;;;;;;36.22;27.59;97209.03;5054058;28;20025;-79
2021/08/30 09:47:33;;;;;;;6.65;3.20;;;;;;;37.38;26.17;97201.41;5070613;28;20117;-79
2021/08/30 09:49:59;;;;;;;10.35;3.70;;;;;;;33.54;30.04;97207.13;5050815;28;20061;-79
2021/08/30 09:52:24;;;;;;;4.13;3.30;;;;;;;31.18;33.03;97201.13;5047881;28;20029;-79
2021/08/30 09:54:50;;;;;;;8.13;3.35;;;;;;;33.04;30.54;97201.41;5050588;28;20025;-79
2021/08/30 09:57:16;;;;;;;3.80;3.10;;;;;;;30.60;34.23;97204.34;5046301;28;20507;-79
2021/08/30 09:59:43;;;;;;;4.97;3.30;;;;;;;31.53;34.14;97207.66;5052353;28;20476;-79
2021/08/30 10:02:14;;;;;;;6.40;3.63;;;;;;;31.59;32.86;97190.09;5037117;28;20453;-80
2021/08/30 10:04:43;;;;;;;4.35;3.70;;;;;;;31.93;32.46;97207.88;5053457;28;20032;-78
2021/08/30 10:07:10;;;;;;;7.57;4.50;;;;;;;31.69;33.28;97206.13;5033792;28;20033;-79
2021/08/30 10:09:36;;;;;;;6.88;3.75;;;;;;;32.71;31.45;97202.06;5051840;28;20039;-79
2021/08/30 10:12:03;;;;;;;4.00;3.38;;;;;;;35.10;28.16;97195.84;5053839;28;20035;-78
2021/08/30 10:14:30;;;;;;;7.85;3.90;;;;;;;36.52;26.88;97191.72;5036691;28;20451;-78
2021/08/30 10:16:59;;;;;;;7.90;3.88;;;;;;;37.03;25.59;97182.59;5063018;28;20039;-79
2021/08/30 10:19:30;;;;;;;5.30;3.20;;;;;;;37.32;25.02;97180.19;5053423;28;20123;-79
2021/08/30 10:21:57;;;;;;;5.38;2.90;;;;;;;36.33;26.76;97177.38;5050237;28;20059;-79
2021/08/30 10:24:25;;;;;;;3.53;3.00;;;;;;;37.38;25.31;97177.13;5050070;28;20470;-79
2021/08/30 10:26:51;;;;;;;3.88;3.20;;;;;;;36.77;25.96;97169.59;5053486;28;20106;-78
2021/08/30 10:29:17;;;;;;;10.13;4.22;;;;;;;37.30;25.47;97177.69;5053224;28;20119;-78
2021/08/30 10:31:47;;;;;;;4.25;3.20;;;;;;;35.67;27.11;97173.16;5053314;28;20025;-78
2021/08/30 10:34:23;;;;;;;5.53;3.00;;;;;;;35.83;26.69;97173.03;5036818;28;20434;-78
2021/08/30 10:36:48;;;;;;;4.47;2.95;;;;;;;34.14;29.40;97174.13;5070965;28;20039;-79
2021/08/30 10:39:14;;;;;;;4.20;3.63;;;;;;;36.11;27.14;97162.72;5071487;28;20036;-78
2021/08/30 10:41:43;;;;;;;4.55;3.00;;;;;;;36.79;25.61;97170.19;5070846;28;20036;-78
2021/08/30 10:44:15;;;;;;;8.13;3.28;;;;;;;37.33;25.98;97159.53;5050139;28;20457;-78
2021/08/30 10:46:41;;;;;;;;;;;;;;;36.43;27.08;97169.91;5051496;28;20029;-78
2021/08/30 10:49:12;;;;;;;6.32;3.47;;;;;;;33.01;30.29;97177.75;5053172;28;19912;-77
2021/08/30 10:51:40;;;;;;;4.90;3.63;;;;;;;31.32;32.98;97176.88;5036347;28;20036;-79
2021/08/30 10:54:09;;;;;;;5.43;3.30;;;;;;;29.99;35.22;97187.72;5036466;28;20048;-77
2021/08/30 10:56:34;;;;;;;4.07;3.28;;;;;;;30.34;34.24;97171.47;5053510;28;20025;-78
2021/08/30 10:59:06;;;;;;;3.80;3.38;;;;;;;32.43;32.06;97180.59;5055681;28;20048;-78
2021/08/30 11:01:38;;;;;;;6.40;3.67;;;;;;;34.56;28.68;97172.53;5057780;28;20020;-77
2021/08/30 11:04:05;;;;;;;26.77;4.05;;;;;;;32.07;31.27;97164.25;5057567;28;20024;-78
2021/08/30 11:06:31;;;;;;;5.05;3.13;;;;;;;34.17;28.87;97162.50;5057230;28;20016;-77
2021/08/30 11:08:57;;;;;;;4.50;3.13;;;;;;;34.35;29.41;97165.00;5039813;28;20035;-78
2021/08/30 11:11:27;;;;;;;4.35;3.80;;;;;;;36.78;26.08;97158.19;5057207;28;20029;-78
2021/08/30 11:14:08;;;;;;;6.38;3.33;;;;;;;34.69;29.02;97160.25;5040249;28;20024;-79
2021/08/30 11:16:35;;;;;;;3.78;3.13;;;;;;;37.18;25.46;97151.97;5065609;28;20025;-79
2021/08/30 11:19:06;;;;;;;4.15;3.25;;;;;;;37.25;24.63;97146.13;5044812;28;20480;-78
2021/08/30 11:21:46;;;;;;;5.07;3.50;;;;;;;36.81;26.08;97160.41;5052672;28;20048;-79
2021/08/30 11:24:30;;;;;;;7.40;3.47;;;;;;;35.78;27.02;97147.06;5036605;28;20029;-78
2021/08/30 11:27:00;;;;;;;8.93;3.53;;;;;;;36.14;28.13;97156.59;5073525;28;20032;-79
2021/08/30 11:29:26;;;;;;;4.95;3.90;;;;;;;35.96;27.72;97143.06;5053265;28;20029;-79
2021/08/30 11:31:53;;;;;;;13.13;4.00;;;;;;;33.13;31.07;97138.94;5054843;28;20091;-78